Flight Track Log - Related Links

Times and Time Zones

All times are in EDT time to prevent confusion due to time zone crossing. See the EGF3520 flight status page for this flight to view local times or setup timezone preferences in your user account.

Time Position Orientation Groundspeed Altitude Reporting Facility
EDT Latitude Longitude Course Direction KTS MPH feet Rate Location/Type
Tue 04:14:18 PM 36.1000 -86.6833 68° East 166 191 1,200  Level Nashville TRACON
Tue 04:15:06 PM 36.0500 -86.6667 165° South 209 241 2,900 1,684 Climbing Nashville TRACON
Tue 04:16:12 PM 36.0500 -86.5833 90° East 269 310 4,400 1,857 Climbing Nashville TRACON
Tue 04:17:00 PM 36.1946 -86.1043 80° East  Level FlightAware Approximate
Tue 04:17:12 PM 36.0833 -86.5000 64° Northeast 279 321 6,800  Level Nashville TRACON
Tue 04:17:43 PM 36.0869 -86.4608 83° East 271 312 7,700 2,176 Climbing Memphis Center
Tue 04:18:00 PM 36.2376 -85.9727 64° Northeast  Level FlightAware Approximate
Tue 04:18:43 PM 36.1131 -86.3694 70° East 312 359 10,100  Level Memphis Center
Tue 04:19:00 PM 36.2858 -85.8427 68° East  Level FlightAware Approximate
Tue 04:19:43 PM 36.1431 -86.2653 70° East 317 365 11,300  Level Memphis Center
Tue 04:20:43 PM 36.1786 -86.1428 70° East 329 379 12,400 1,050 Climbing Memphis Center
Tue 04:21:43 PM 36.2206 -86.0272 66° East 354 407 13,400 1,000 Climbing Memphis Center
Tue 04:22:43 PM 36.2706 -85.9114 62° Northeast 371 427 14,400 1,056 Climbing Memphis Center
Tue 04:23:48 PM 36.3278 -85.7836 61° Northeast 393 452 15,600 992 Climbing Indianapolis Center
Tue 04:24:50 PM 36.3842 -85.6636 60° Northeast 400 460 16,500 919 Climbing Indianapolis Center
Tue 04:25:52 PM 36.4422 -85.5433 59° Northeast 405 466 17,500 871 Climbing Indianapolis Center
Tue 04:26:54 PM 36.5014 -85.4206 59° Northeast 411 473 18,300 871 Climbing Indianapolis Center
Tue 04:27:56 PM 36.5589 -85.2969 60° Northeast 412 474 19,300 968 Climbing Indianapolis Center
Tue 04:28:58 PM 36.6178 -85.1697 60° Northeast 421 484 20,300 1,065 Climbing Indianapolis Center
Tue 04:30:00 PM 36.6678 -85.0033 69° East 429 494 21,500 1,065 Climbing Indianapolis Center
Tue 04:31:02 PM 36.7100 -84.8639 69° East 429 494 22,500 919 Climbing Indianapolis Center
Tue 04:32:04 PM 36.7536 -84.7219 69° East 435 501 23,400 919 Climbing Indianapolis Center
Tue 04:33:06 PM 36.7956 -84.5806 70° East 437 503 24,400 1,016 Climbing Indianapolis Center
Tue 04:34:08 PM 36.8419 -84.4281 69° East 436 502 25,500 1,008 Climbing Indianapolis Center
Tue 04:35:11 PM 36.8839 -84.2872 70° East 433 498 26,500 960 Climbing Indianapolis Center
Tue 04:36:13 PM 36.9272 -84.1469 69° East 433 498 27,500 1,306 Climbing Indianapolis Center
Tue 04:37:15 PM 36.9678 -84.0089 70° East 426 490 29,200 1,742 Climbing Indianapolis Center
Tue 04:38:17 PM 37.0075 -83.8761 69° East 413 475 31,100 1,355 Climbing Indianapolis Center
Tue 04:39:19 PM 37.0533 -83.7236 69° East 401 461 32,000 435 Climbing Indianapolis Center
Tue 04:40:21 PM 37.0750 -83.5733 80° East 435 501 32,000  Level Indianapolis Center
Tue 04:41:23 PM 37.0681 -83.4147 93° East 455 524 32,000 435 Level Indianapolis Center
Tue 04:42:25 PM 37.0619 -83.2542 93° East 460 529 32,900 484 Climbing Indianapolis Center
Tue 04:43:27 PM 37.0575 -83.0936 92° East 459 528 33,000 48 Climbing Indianapolis Center
Tue 04:44:29 PM 37.0550 -82.9331 91° East 456 525 33,000  Level Indianapolis Center
Tue 04:45:31 PM 37.0950 -82.7503 75° East 468 539 33,000 484 Level Indianapolis Center
Tue 04:46:33 PM 37.1594 -82.6069 61° Northeast 469 540 34,000 484 Climbing Indianapolis Center
Tue 04:47:35 PM 37.2206 -82.4575 63° Northeast 480 552 34,000  Level Indianapolis Center
Tue 04:49:00 PM 37.2808 -82.2793 65° Northeast  Level FlightAware Approximate
Tue 04:49:39 PM 37.3325 -82.1739 65° Northeast 448 516 34,000  Level Indianapolis Center
Tue 04:50:41 PM 37.3864 -82.0381 63° Northeast 437 503 34,000  Level Indianapolis Center
Tue 04:51:43 PM 37.4497 -81.8778 63° Northeast 440 506 34,000  Level Indianapolis Center
Tue 04:52:45 PM 37.5225 -81.7419 56° Northeast 470 541 34,000  Level Indianapolis Center
Tue 04:53:47 PM 37.6119 -81.6197 47° Northeast 475 547 34,000  Level Indianapolis Center
Tue 04:54:49 PM 37.6919 -81.4919 52° Northeast 456 525 34,000 387 Level Indianapolis Center
Tue 04:55:51 PM 37.7692 -81.3708 51° Northeast 455 524 34,800 1,403 Climbing Indianapolis Center
Tue 04:56:53 PM 37.8436 -81.2225 58° Northeast 434 499 36,900 1,065 Climbing Indianapolis Center
Tue 04:57:55 PM 37.8864 -81.0794 69° East 433 498 37,000 48 Climbing Indianapolis Center
Tue 04:58:57 PM 37.9322 -80.9283 69° East 456 525 37,000  Level Indianapolis Center
Tue 04:59:59 PM 37.9794 -80.7792 68° East 458 527 37,000  Level Indianapolis Center
Tue 05:01:01 PM 38.0231 -80.6347 69° East 445 512 37,000 -244 Level Indianapolis Center
Tue 05:02:02 PM 38.0664 -80.4917 69° East 439 505 36,500 -1,122 Descending Indianapolis Center
Tue 05:03:04 PM 38.1192 -80.3161 69° East 444 511 34,700 -1,694 Descending Indianapolis Center
Tue 05:04:06 PM 38.1647 -80.1619 69° East 463 533 33,000 -1,524 Descending Indianapolis Center
Tue 05:05:10 PM 38.2147 -80.0158 66° East 462 532 31,500 -1,200 Descending Washington Center
Tue 05:06:11 PM 38.2600 -79.8597 70° East 462 532 30,500 -1,388 Descending Washington Center
Tue 05:07:11 PM 38.3050 -79.7064 69° East 462 532 28,700 -1,700 Descending Washington Center
Tue 05:08:11 PM 38.3519 -79.5525 69° East 462 532 27,100 -1,450 Descending Washington Center
Tue 05:09:11 PM 38.3942 -79.4064 70° East 457 526 25,800 -1,180 Descending Washington Center
Tue 05:10:13 PM 38.4347 -79.2469 72° East 440 506 24,700 -1,866 Descending Washington Center
Tue 05:11:10 PM 38.4575 -79.1075 78° East 415 478 22,100 -2,390 Descending Washington Center
Tue 05:12:11 PM 38.4844 -78.9736 76° East 398 458 20,000 -1,525 Descending Washington Center
Tue 05:13:12 PM 38.5025 -78.8444 80° East 385 443 19,000 -492 Descending Washington Center
Tue 05:14:13 PM 38.5269 -78.7047 77° East 385 443 19,000  Level Washington Center
Tue 05:15:11 PM 38.5472 -78.5675 79° East 391 450 19,000  Level Washington Center
Tue 05:16:11 PM 38.5672 -78.4328 79° East 391 450 19,000 -793 Level Washington Center
Tue 05:17:12 PM 38.5886 -78.3089 78° East 376 433 17,400 -2,370 Descending Washington Center
Tue 05:18:10 PM 38.6164 -78.1931 73° East 352 405 14,300 -1,714 Descending Washington Center
Tue 05:19:11 PM 38.6497 -78.0906 67° East 328 377 14,000 -639 Descending Washington Center
Tue 05:20:12 PM 38.6833 -77.9825 68° East 318 366 13,000 -504 Descending Washington Center
Tue 05:21:10 PM 38.7164 -77.8797 68° East 311 358 13,000 -454 Level Washington Center
Tue 05:22:11 PM 38.7578 -77.7881 60° Northeast 306 352 12,100 -992 Descending Washington Center
Tue 05:23:11 PM 38.8133 -77.7097 48° Northeast 296 341 11,000 -1,240 Descending Washington Center
Tue 05:24:12 PM 38.8669 -77.6339 48° Northeast 290 334 9,600 -1,257 Descending Washington Center
Tue 05:25:58 PM 38.9500 -77.4833 55° Northeast 266 306 7,500 -1,275 Descending Potomac TRACON
Tue 05:26:52 PM 38.9667 -77.4167 72° East 266 306 6,200 -1,316 Descending Potomac TRACON
Tue 05:27:52 PM 38.9833 -77.3167 78° East 250 288 5,000 -1,140 Descending Potomac TRACON
Tue 05:28:53 PM 38.9833 -77.2333 90° East 239 275 3,900 -1,082 Descending Potomac TRACON

Login

Don't have an account? Register now (free) for customized features, flight alerts, and more!